Union Furnace, Ohio
Current Conditions -  °F | °C
As of 6:55 PM on Tuesday 25 Nov 2014 (Local Time) from KUNI Reporting Station
Clear Clear  
Wind Chill: 39°   Ceiling: Unl
Heat Index: 39°   Visibility: 10mi
Dew Point: 28°   Wind: 3mph
Humidity: 66%   Direction: 10°N
Pressure: 30.14"   Gusts: NA
Location:  39.46°N, 82.36°W
Report Text: KUNI 252355Z AUTO 01003KT 10SM CLR 04/M02 A3014 RMK AO2 T00381020 10097 20037
Loading
Personal Weather Stations






























Interactive Weather Map New forecast layout! Learn more

10-Day Weather Forecast

Advertisements
Track Severe Weather on mobile